Time;durP1;ratioP1;P1;durP2;ratioP2;P2;SDS_P1;SDS_P2;PMS_P1;PMS_P2;Temp;Humidity;BMP_temperature;BMP_pressure;BME280_temperature;BME280_humidity;BME280_pressure;Samples;Min_cycle;Max_cycle;Signal;HPM_P1;HPM_P2
2022/11/30 00:01:14;;;;;;;46.50;18.75;;;3.50;99.90;;;;;;5137363;28;20030;-77
2022/11/30 00:03:46;;;;;;;36.10;17.13;;;3.50;99.90;;;;;;5165796;28;20042;-77
2022/11/30 00:06:22;;;;;;;45.17;18.55;;;3.40;99.90;;;;;;5142795;28;20060;-77
2022/11/30 00:08:54;;;;;;;40.55;17.10;;;3.50;99.90;;;;;;5150664;28;20029;-77
2022/11/30 00:11:27;;;;;;;34.13;16.38;;;3.40;99.90;;;;;;5170616;28;20028;-78
2022/11/30 00:14:00;;;;;;;39.85;19.08;;;3.50;99.90;;;;;;5149837;28;20034;-78
2022/11/30 00:16:34;;;;;;;39.20;16.23;;;3.60;99.90;;;;;;5133719;28;20340;-79
2022/11/30 00:19:05;;;;;;;38.13;16.55;;;3.70;99.90;;;;;;5152354;28;20039;-77
2022/11/30 00:21:39;;;;;;;41.58;17.77;;;3.80;99.90;;;;;;5151369;28;20204;-76
2022/11/30 00:24:12;;;;;;;39.03;17.33;;;3.70;99.90;;;;;;5151583;28;20035;-78
2022/11/30 00:26:46;;;;;;;41.30;18.30;;;3.80;99.90;;;;;;5151688;28;20023;-76
2022/11/30 00:29:24;;;;;;;37.10;16.50;;;3.80;99.90;;;;;;5151709;28;20256;-76
2022/11/30 00:31:58;;;;;;;40.13;16.48;;;3.80;99.90;;;;;;5163752;28;20252;-78
2022/11/30 00:34:30;;;;;;;39.92;17.48;;;3.80;99.90;;;;;;5154215;28;20030;-76
2022/11/30 00:37:01;;;;;;;42.00;17.33;;;3.80;99.90;;;;;;5154270;28;20515;-76
2022/11/30 00:39:32;;;;;;;42.42;18.70;;;3.70;99.90;;;;;;5172173;28;20098;-77
2022/11/30 00:42:08;;;;;;;36.72;18.05;;;3.70;99.90;;;;;;5171941;28;20029;-76
2022/11/30 00:44:39;;;;;;;40.10;17.77;;;3.60;99.90;;;;;;5158398;28;20032;-76
2022/11/30 00:47:18;;;;;;;42.70;16.80;;;3.60;99.90;;;;;;5184131;28;20033;-76
2022/11/30 00:49:54;;;;;;;38.50;17.55;;;3.60;99.90;;;;;;5158389;28;20052;-76
2022/11/30 00:52:28;;;;;;;38.50;18.48;;;3.60;99.90;;;;;;5179570;28;20022;-77
2022/11/30 00:54:59;;;;;;;34.25;17.23;;;3.60;99.90;;;;;;5159347;28;20034;-76
2022/11/30 00:57:31;;;;;;;41.85;18.98;;;3.50;99.90;;;;;;5178683;28;20022;-77
2022/11/30 01:00:06;;;;;;;36.55;16.88;;;3.40;99.90;;;;;;5181062;28;20026;-77
2022/11/30 01:02:40;;;;;;;;;;;3.40;99.90;;;;;;5160872;28;20050;-76
2022/11/30 01:05:13;;;;;;;41.53;18.27;;;3.40;99.90;;;;;;5171168;28;19936;-78
2022/11/30 01:07:47;;;;;;;39.13;17.25;;;3.40;99.90;;;;;;5182005;28;20318;-77
2022/11/30 01:10:19;;;;;;;35.55;17.45;;;3.50;99.90;;;;;;5143278;28;20041;-78
2022/11/30 01:12:50;;;;;;;40.72;18.20;;;3.50;99.90;;;;;;5159348;28;20320;-78
2022/11/30 01:15:24;;;;;;;49.13;20.13;;;3.40;99.90;;;;;;5172473;28;20040;-78
2022/11/30 01:17:57;;;;;;;;;;;3.40;99.90;;;;;;5178373;28;20319;-78
2022/11/30 01:20:28;;;;;;;43.42;19.52;;;3.40;99.90;;;;;;5159979;28;19909;-78
2022/11/30 01:23:05;;;;;;;47.30;20.17;;;3.40;99.90;;;;;;5161140;28;20207;-77
2022/11/30 01:25:39;;;;;;;45.50;20.77;;;3.40;99.90;;;;;;5159328;28;20044;-78
2022/11/30 01:28:10;;;;;;;46.05;20.30;;;3.50;99.90;;;;;;5155822;28;20036;-77
2022/11/30 01:30:44;;;;;;;36.88;17.73;;;3.50;99.90;;;;;;5176922;28;20324;-76
2022/11/30 01:33:16;;;;;;;40.70;18.48;;;3.40;99.90;;;;;;5176063;28;20030;-76
2022/11/30 01:35:49;;;;;;;45.92;19.08;;;3.30;99.90;;;;;;5176706;28;20032;-78
2022/11/30 01:38:20;;;;;;;40.05;20.60;;;3.20;99.90;;;;;;5174960;28;20032;-76
2022/11/30 01:40:54;;;;;;;41.80;18.50;;;3.20;99.90;;;;;;5174944;28;20259;-78
2022/11/30 01:43:47;;;;;;;43.42;19.15;;;3.30;99.90;;;;;;5139975;28;20046;-78
2022/11/30 01:46:24;;;;;;;39.80;19.20;;;3.40;99.90;;;;;;5156986;28;20034;-78
2022/11/30 01:49:18;;;;;;;41.13;18.73;;;3.50;99.90;;;;;;5174703;28;20026;-78
2022/11/30 01:52:12;;;;;;;37.75;17.45;;;3.40;99.90;;;;;;5154539;28;20027;-77
2022/11/30 01:54:50;;;;;;;41.45;18.77;;;3.40;99.90;;;;;;5154222;28;20366;-77
2022/11/30 01:57:25;;;;;;;36.40;17.88;;;3.30;99.90;;;;;;5147954;28;20064;-78
2022/11/30 02:00:01;;;;;;;40.38;19.02;;;3.40;99.90;;;;;;5153852;28;20046;-78
2022/11/30 02:02:47;;;;;;;42.55;19.23;;;3.50;99.90;;;;;;5149110;28;20030;-78
2022/11/30 02:05:22;;;;;;;43.33;19.33;;;3.50;99.90;;;;;;5162393;28;20050;-77
2022/11/30 02:07:54;;;;;;;42.20;18.65;;;3.40;99.90;;;;;;5154732;28;20042;-78
2022/11/30 02:10:30;;;;;;;38.90;19.33;;;3.40;99.90;;;;;;5174467;28;20664;-78
2022/11/30 02:13:23;;;;;;;41.92;18.27;;;3.50;99.90;;;;;;5162924;28;20023;-78
2022/11/30 02:15:57;;;;;;;44.22;19.10;;;3.40;99.90;;;;;;5147597;28;20033;-78
2022/11/30 02:18:50;;;;;;;42.13;19.70;;;3.30;99.90;;;;;;5152881;28;20052;-78
2022/11/30 02:21:33;;;;;;;38.05;17.65;;;3.10;99.90;;;;;;5166190;28;20032;-78
2022/11/30 02:24:36;;;;;;;42.30;19.73;;;3.00;99.90;;;;;;5171302;28;20230;-78
2022/11/30 02:27:24;;;;;;;46.50;19.52;;;3.10;99.90;;;;;;5173757;28;20037;-78
2022/11/30 02:30:22;;;;;;;39.05;18.15;;;3.00;99.90;;;;;;5171733;28;20030;-78
2022/11/30 02:33:08;;;;;;;40.58;17.52;;;3.10;99.90;;;;;;5158595;28;20207;-78
2022/11/30 02:35:47;;;;;;;38.55;19.30;;;3.20;99.90;;;;;;5172621;28;20316;-77
2022/11/30 02:38:24;;;;;;;48.42;18.30;;;3.10;99.90;;;;;;5155635;28;20026;-78
2022/11/30 02:41:01;;;;;;;41.85;18.52;;;3.20;99.90;;;;;;5173865;28;20041;-78
2022/11/30 02:43:34;;;;;;;41.47;19.00;;;3.30;99.90;;;;;;5152643;28;20045;-78
2022/11/30 02:46:40;;;;;;;39.65;18.98;;;3.40;99.90;;;;;;5134733;28;20042;-77
2022/11/30 02:49:36;;;;;;;39.72;18.98;;;3.40;99.90;;;;;;5152536;28;20029;-78
2022/11/30 02:52:09;;;;;;;40.50;19.25;;;3.50;99.90;;;;;;5133484;28;20442;-78
2022/11/30 02:54:40;;;;;;;40.80;19.15;;;3.50;99.90;;;;;;5154812;28;20185;-77
2022/11/30 02:57:12;;;;;;;45.08;18.45;;;3.40;99.90;;;;;;5170791;28;20040;-78
2022/11/30 02:59:43;;;;;;;43.45;18.27;;;3.30;99.90;;;;;;5127686;28;20042;-78
2022/11/30 03:02:14;;;;;;;48.75;21.60;;;3.20;99.90;;;;;;5160836;28;20036;-78
2022/11/30 03:04:50;;;;;;;43.30;19.80;;;3.20;99.90;;;;;;5164602;28;20455;-78
2022/11/30 03:07:23;;;;;;;44.70;19.40;;;3.30;99.90;;;;;;5138959;28;20054;-78
2022/11/30 03:09:55;;;;;;;45.23;21.43;;;3.20;99.90;;;;;;5139454;28;20044;-77
2022/11/30 03:12:29;;;;;;;44.08;17.92;;;3.30;99.90;;;;;;5172446;28;20267;-78
2022/11/30 03:15:04;;;;;;;42.00;18.83;;;3.20;99.90;;;;;;5172441;28;20022;-77
2022/11/30 03:17:37;;;;;;;46.50;18.60;;;3.20;99.90;;;;;;5172700;28;20032;-78
2022/11/30 03:20:09;;;;;;;;;;;3.10;99.90;;;;;;5172090;28;20018;-77
2022/11/30 03:22:43;;;;;;;41.78;17.67;;;3.10;99.90;;;;;;5156123;28;19907;-77
2022/11/30 03:25:14;;;;;;;50.13;19.58;;;3.10;99.90;;;;;;5192576;28;20038;-78
2022/11/30 03:27:45;;;;;;;41.72;18.38;;;3.10;99.90;;;;;;5192625;28;20040;-76
2022/11/30 03:30:16;;;;;;;40.28;19.25;;;3.20;99.90;;;;;;5191828;28;20030;-76
2022/11/30 03:32:55;;;;;;;36.70;17.58;;;3.20;99.90;;;;;;5152110;28;20068;-76
2022/11/30 03:35:28;;;;;;;38.42;17.80;;;3.30;99.90;;;;;;5172324;28;20026;-76
2022/11/30 03:37:59;;;;;;;42.38;20.15;;;3.40;99.90;;;;;;5153579;28;20046;-76
2022/11/30 03:40:33;;;;;;;45.90;19.00;;;3.40;99.90;;;;;;5171543;28;20032;-76
2022/11/30 03:43:12;;;;;;;42.75;19.13;;;3.50;99.90;;;;;;5154231;28;20037;-77
2022/11/30 03:45:46;;;;;;;39.78;19.30;;;3.40;99.90;;;;;;5171573;28;20038;-77
2022/11/30 03:48:17;;;;;;;38.60;18.58;;;3.40;99.90;;;;;;5151432;28;20034;-77
2022/11/30 03:50:49;;;;;;;38.88;18.33;;;3.40;99.90;;;;;;5154059;28;20044;-77
2022/11/30 03:53:22;;;;;;;43.88;20.60;;;3.40;99.90;;;;;;5173488;28;20032;-77
2022/11/30 03:56:01;;;;;;;40.13;18.63;;;3.40;99.90;;;;;;5159499;28;20199;-77
2022/11/30 03:58:35;;;;;;;46.42;19.60;;;3.40;99.90;;;;;;5185258;28;20030;-77
2022/11/30 04:01:18;;;;;;;44.97;18.75;;;3.40;99.90;;;;;;5163958;28;20040;-77
2022/11/30 04:03:53;;;;;;;44.65;20.05;;;3.30;99.90;;;;;;5166984;28;20230;-77
2022/11/30 04:06:30;;;;;;;36.75;18.80;;;3.10;99.90;;;;;;5144123;28;20054;-77
2022/11/30 04:09:01;;;;;;;42.53;20.15;;;3.00;99.90;;;;;;5122072;28;20072;-76
2022/11/30 04:11:32;;;;;;;47.05;19.75;;;3.10;99.90;;;;;;5171778;28;20030;-77
2022/11/30 04:14:09;;;;;;;45.80;19.92;;;3.10;99.90;;;;;;5182795;28;20042;-77
2022/11/30 04:16:42;;;;;;;42.92;18.75;;;3.10;99.90;;;;;;5192261;28;20021;-77
2022/11/30 04:19:14;;;;;;;44.67;18.47;;;3.10;99.90;;;;;;5195780;28;20030;-77
2022/11/30 04:21:45;;;;;;;39.00;18.00;;;3.10;99.90;;;;;;5160212;28;20266;-77
2022/11/30 04:24:16;;;;;;;37.08;17.33;;;3.20;99.90;;;;;;5158497;28;20041;-77
2022/11/30 04:26:49;;;;;;;42.25;18.20;;;3.40;99.90;;;;;;5159125;28;20058;-77
2022/11/30 04:29:24;;;;;;;47.80;20.52;;;3.50;99.90;;;;;;5181200;28;20045;-77
2022/11/30 04:31:55;;;;;;;40.05;18.05;;;3.50;99.90;;;;;;5175227;28;20031;-77
2022/11/30 04:34:27;;;;;;;44.75;20.10;;;3.50;99.90;;;;;;5175645;28;20053;-78
2022/11/30 04:37:00;;;;;;;44.55;20.10;;;3.40;99.90;;;;;;5158640;28;20044;-77
2022/11/30 04:39:34;;;;;;;41.90;18.20;;;3.20;99.90;;;;;;5155208;28;20030;-77
2022/11/30 04:42:07;;;;;;;42.17;18.20;;;3.30;99.90;;;;;;5141452;28;20148;-77
2022/11/30 04:44:39;;;;;;;41.03;18.63;;;3.40;99.90;;;;;;5153022;28;20038;-77
2022/11/30 04:47:13;;;;;;;45.20;19.05;;;3.50;99.90;;;;;;5144105;28;20045;-77
2022/11/30 04:49:44;;;;;;;45.08;20.20;;;3.50;99.90;;;;;;5154119;28;20035;-77
2022/11/30 04:52:15;;;;;;;43.58;19.20;;;3.60;99.90;;;;;;5155910;28;20034;-76
2022/11/30 04:54:46;;;;;;;42.53;19.52;;;3.50;99.90;;;;;;5155770;28;20212;-76
2022/11/30 04:57:18;;;;;;;42.60;20.45;;;3.60;99.90;;;;;;5160898;28;20042;-78
2022/11/30 04:59:49;;;;;;;38.60;18.40;;;3.50;99.90;;;;;;5176147;28;20034;-78
2022/11/30 05:02:21;;;;;;;43.33;19.33;;;3.60;99.90;;;;;;5172781;28;20044;-75
2022/11/30 05:04:52;;;;;;;44.53;18.90;;;3.70;99.90;;;;;;5145396;28;20067;-77
2022/11/30 05:07:28;;;;;;;35.75;16.55;;;3.70;99.90;;;;;;5153321;28;20060;-76
2022/11/30 05:09:59;;;;;;;44.65;19.50;;;3.70;99.90;;;;;;5195932;28;20028;-76
2022/11/30 05:12:31;;;;;;;43.05;20.20;;;3.70;99.90;;;;;;5177438;28;20227;-76
2022/11/30 05:15:05;;;;;;;38.70;18.75;;;3.70;99.90;;;;;;5178269;28;20319;-76
2022/11/30 05:17:39;;;;;;;44.63;20.13;;;3.80;99.90;;;;;;5197484;28;20319;-76
2022/11/30 05:20:11;;;;;;;38.75;18.15;;;3.80;99.90;;;;;;5185248;28;20024;-78
2022/11/30 05:22:47;;;;;;;45.38;19.30;;;3.80;99.90;;;;;;5161710;28;20045;-76
2022/11/30 05:25:21;;;;;;;46.25;20.92;;;3.90;99.90;;;;;;5171114;28;20033;-77
2022/11/30 05:27:52;;;;;;;;;;;3.90;99.90;;;;;;5181307;28;20029;-76
2022/11/30 05:30:26;;;;;;;43.97;17.92;;;3.90;99.90;;;;;;5145488;28;19905;-77
2022/11/30 05:32:59;;;;;;;43.30;19.92;;;3.90;99.90;;;;;;5163314;28;20029;-76
2022/11/30 05:35:31;;;;;;;41.20;18.67;;;4.00;99.90;;;;;;5157457;28;20325;-77
2022/11/30 05:38:02;;;;;;;51.28;22.08;;;3.90;99.90;;;;;;5157666;28;20022;-78
2022/11/30 05:40:36;;;;;;;43.67;18.98;;;3.90;99.90;;;;;;5156546;28;20037;-78
2022/11/30 05:43:15;;;;;;;47.83;19.95;;;3.80;99.90;;;;;;5156904;28;20022;-78
2022/11/30 05:45:46;;;;;;;42.65;20.85;;;3.60;99.90;;;;;;5171898;28;20034;-78
2022/11/30 05:48:19;;;;;;;49.05;21.20;;;3.50;99.90;;;;;;5181265;28;20021;-78
2022/11/30 05:50:52;;;;;;;45.00;19.38;;;3.50;99.90;;;;;;5179160;28;20040;-78
2022/11/30 05:53:24;;;;;;;41.10;18.63;;;3.50;99.90;;;;;;5193476;28;20498;-76
2022/11/30 05:55:59;;;;;;;40.67;18.23;;;3.50;99.90;;;;;;5160157;28;20042;-76
2022/11/30 05:58:33;;;;;;;46.40;20.55;;;3.60;99.90;;;;;;5177356;28;20034;-76
2022/11/30 06:01:08;;;;;;;46.53;20.42;;;3.60;99.90;;;;;;5157201;28;20052;-75
2022/11/30 06:03:39;;;;;;;;;;;3.60;99.90;;;;;;5168287;28;20324;-77
2022/11/30 06:06:12;;;;;;;40.50;18.65;;;3.70;99.90;;;;;;5147085;28;19934;-77
2022/11/30 06:08:45;;;;;;;41.75;19.75;;;3.70;99.90;;;;;;5132328;28;20045;-76
2022/11/30 06:11:17;;;;;;;48.58;20.95;;;3.60;99.90;;;;;;5152921;28;20034;-77
2022/11/30 06:13:48;;;;;;;42.15;19.13;;;3.70;99.90;;;;;;5153529;28;20328;-77
2022/11/30 06:16:22;;;;;;;46.70;19.67;;;3.70;99.90;;;;;;5152784;28;20040;-76
2022/11/30 06:18:54;;;;;;;42.35;19.83;;;3.70;99.90;;;;;;5153365;28;20015;-76
2022/11/30 06:21:25;;;;;;;40.58;18.50;;;3.70;99.90;;;;;;5168913;28;20034;-78
2022/11/30 06:23:56;;;;;;;43.38;19.17;;;3.60;99.90;;;;;;5155309;28;20038;-76
2022/11/30 06:26:27;;;;;;;42.72;19.65;;;3.60;99.90;;;;;;5172087;28;20316;-75
2022/11/30 06:29:01;;;;;;;43.08;19.80;;;3.50;99.90;;;;;;5172110;28;20027;-76
2022/11/30 06:31:35;;;;;;;51.25;21.23;;;3.40;99.90;;;;;;5143448;28;20046;-76
2022/11/30 06:34:11;;;;;;;46.65;19.55;;;3.40;99.90;;;;;;5170704;28;20044;-78
2022/11/30 06:36:42;;;;;;;45.10;20.10;;;3.40;99.90;;;;;;5171476;28;20026;-78
2022/11/30 06:39:13;;;;;;;48.65;20.77;;;3.50;99.90;;;;;;5138005;28;20068;-76
2022/11/30 06:41:44;;;;;;;49.00;21.70;;;3.50;99.90;;;;;;5154649;28;20026;-76
2022/11/30 06:44:16;;;;;;;46.85;20.50;;;3.50;99.90;;;;;;5140721;28;20335;-76
2022/11/30 06:46:52;;;;;;;38.08;19.25;;;3.60;99.90;;;;;;5153373;28;20222;-76
2022/11/30 06:49:23;;;;;;;46.72;21.48;;;3.60;99.90;;;;;;5169096;28;20022;-76
2022/11/30 06:51:57;;;;;;;40.75;20.27;;;3.50;99.90;;;;;;5150880;28;20036;-76
2022/11/30 06:54:33;;;;;;;44.58;20.77;;;3.60;99.90;;;;;;5152326;28;20044;-79
2022/11/30 06:57:04;;;;;;;43.67;19.48;;;3.60;99.90;;;;;;5165838;28;20033;-80
2022/11/30 06:59:36;;;;;;;50.30;20.83;;;3.60;99.90;;;;;;5120338;28;20259;-78
2022/11/30 07:02:12;;;;;;;44.13;19.30;;;3.50;99.90;;;;;;5169790;28;20105;-77
2022/11/30 07:04:48;;;;;;;45.90;21.17;;;3.50;99.90;;;;;;5144757;28;20050;-77
2022/11/30 07:07:20;;;;;;;45.03;19.27;;;3.60;99.90;;;;;;5169041;28;20041;-78
2022/11/30 07:09:51;;;;;;;44.85;21.42;;;3.60;99.90;;;;;;5150388;28;20043;-76
2022/11/30 07:12:23;;;;;;;47.40;20.45;;;3.70;99.90;;;;;;5152985;28;20030;-78
2022/11/30 07:14:54;;;;;;;45.47;20.67;;;3.80;99.90;;;;;;5168396;28;20332;-77
2022/11/30 07:17:26;;;;;;;37.17;18.90;;;3.90;99.90;;;;;;5164867;28;20030;-77
2022/11/30 07:19:59;;;;;;;44.85;21.55;;;4.00;99.90;;;;;;5156408;28;20052;-78
2022/11/30 07:22:30;;;;;;;54.13;20.05;;;4.00;99.90;;;;;;5173008;28;20315;-77
2022/11/30 07:27:53;;;;;;;46.42;22.50;;;4.00;99.90;;;;;;5167192;28;20018;-78
2022/11/30 07:30:24;;;;;;;51.72;21.80;;;3.90;99.90;;;;;;5154631;28;20056;-77
2022/11/30 07:33:00;;;;;;;48.88;19.98;;;3.90;99.90;;;;;;5155012;28;20042;-77
2022/11/30 07:35:34;;;;;;;48.58;21.02;;;3.90;99.90;;;;;;5166178;28;20030;-78
2022/11/30 07:38:10;;;;;;;47.42;20.13;;;3.90;99.90;;;;;;5172118;28;20042;-79
2022/11/30 07:40:41;;;;;;;47.05;19.98;;;3.80;99.90;;;;;;5151060;28;20049;-81
2022/11/30 07:43:12;;;;;;;40.90;20.00;;;4.00;99.90;;;;;;5164692;28;20027;-77
2022/11/30 07:45:53;;;;;;;48.92;21.08;;;4.10;99.90;;;;;;5151323;28;20335;-78
2022/11/30 07:48:27;;;;;;;56.88;21.60;;;4.10;99.90;;;;;;5151719;28;20034;-78
2022/11/30 07:51:09;;;;;;;50.35;20.95;;;4.20;99.90;;;;;;5153218;28;20081;-78
2022/11/30 07:53:43;;;;;;;45.30;20.05;;;4.30;99.90;;;;;;5154041;28;20547;-80
2022/11/30 07:56:20;;;;;;;45.03;20.00;;;4.30;99.90;;;;;;5137044;28;20196;-79
2022/11/30 07:58:57;;;;;;;57.15;27.23;;;4.30;99.90;;;;;;5172483;28;20044;-80
2022/11/30 08:01:31;;;;;;;48.25;22.10;;;4.20;99.90;;;;;;5151474;28;20034;-80
2022/11/30 08:04:12;;;;;;;47.45;21.40;;;4.20;99.90;;;;;;5150070;28;20046;-77
2022/11/30 08:06:46;;;;;;;45.20;20.67;;;4.20;99.90;;;;;;5143503;28;20262;-78
2022/11/30 08:09:20;;;;;;;46.40;19.88;;;4.10;99.90;;;;;;5178184;28;20030;-81
2022/11/30 08:11:51;;;;;;;42.17;18.23;;;4.20;99.90;;;;;;5167386;28;20034;-80
2022/11/30 08:14:23;;;;;;;53.72;22.75;;;4.10;99.90;;;;;;5135402;28;20053;-79
2022/11/30 08:16:54;;;;;;;44.22;20.85;;;4.20;99.90;;;;;;5148350;28;20039;-79
2022/11/30 08:19:25;;;;;;;47.17;20.70;;;4.20;99.90;;;;;;5171058;28;20036;-79
2022/11/30 08:22:02;;;;;;;45.10;19.98;;;4.10;99.90;;;;;;5171484;28;20041;-79
2022/11/30 08:24:36;;;;;;;46.33;20.60;;;4.30;99.90;;;;;;5171543;28;20034;-79
2022/11/30 08:27:07;;;;;;;43.05;21.92;;;4.50;99.90;;;;;;5161764;28;20038;-78
2022/11/30 08:29:40;;;;;;;47.15;21.08;;;4.70;99.90;;;;;;5159501;28;20050;-79
2022/11/30 08:32:14;;;;;;;42.83;19.77;;;4.90;99.90;;;;;;5168812;28;20184;-78
2022/11/30 08:34:45;;;;;;;;;;;5.10;99.90;;;;;;5171905;28;20044;-79
2022/11/30 08:37:19;;;;;;;41.35;17.92;;;5.20;99.90;;;;;;5166297;28;19905;-80
2022/11/30 08:42:24;;;;;;;47.47;22.27;;;5.50;99.90;;;;;;5298454;27;20407;-78
2022/11/30 08:44:55;;;;;;;;;;;5.80;99.90;;;;;;5259562;28;20059;-78
2022/11/30 08:47:30;;;;;;;44.13;20.27;;;5.90;99.90;;;;;;5290590;28;19912;-78
2022/11/30 08:50:01;;;;;;;;;;;6.20;99.90;;;;;;5255256;28;20036;-77
2022/11/30 08:52:32;;;;;;;48.20;20.23;;;6.20;99.90;;;;;;5250524;28;19908;-78
2022/11/30 11:52:21;;;;;;;33.13;17.67;;;8.70;99.90;;;;;;6045090;24;20062;-61
2022/11/30 11:55:05;;;;;;;28.00;15.00;;;8.30;99.90;;;;;;5952134;24;20428;-62
2022/11/30 11:57:56;;;;;;;30.07;15.60;;;7.90;99.90;;;;;;5884560;25;20209;-61
2022/11/30 12:00:28;;;;;;;33.92;16.75;;;8.10;99.90;;;;;;5794933;25;20027;-62
2022/11/30 12:03:29;;;;;;;26.90;15.25;;;8.10;99.90;;;;;;5825954;25;20196;-61
2022/11/30 12:06:15;;;;;;;31.50;14.93;;;8.30;99.90;;;;;;5841324;25;20037;-60
2022/11/30 12:08:53;;;;;;;29.58;15.30;;;8.30;99.90;;;;;;5904134;25;20022;-60
2022/11/30 12:11:46;;;;;;;26.23;14.05;;;8.20;99.90;;;;;;5892696;25;20012;-60
2022/11/30 12:14:18;;;;;;;25.38;14.70;;;8.30;99.90;;;;;;5902383;25;20036;-61
2022/11/30 12:17:14;;;;;;;27.13;14.05;;;8.30;99.90;;;;;;5898659;25;20009;-59
2022/11/30 12:20:13;;;;;;;27.15;14.98;;;8.30;99.90;;;;;;5847439;25;20028;-62
2022/11/30 12:23:31;;;;;;;28.42;14.65;;;8.40;99.90;;;;;;5854939;25;20028;-63
2022/11/30 12:26:26;;;;;;;23.08;13.65;;;8.40;99.90;;;;;;5844514;25;20021;-62
2022/11/30 12:29:36;;;;;;;25.55;13.82;;;8.30;99.90;;;;;;5819588;25;20014;-61
2022/11/30 12:32:29;;;;;;;28.70;14.65;;;8.10;99.90;;;;;;5749864;25;20015;-62
2022/11/30 12:35:16;;;;;;;28.05;14.68;;;8.10;99.90;;;;;;5744265;25;20019;-61
2022/11/30 12:38:15;;;;;;;25.50;13.77;;;8.20;99.90;;;;;;5754090;25;20015;-62
2022/11/30 12:40:50;;;;;;;31.55;15.68;;;8.40;99.90;;;;;;5795450;25;20024;-62
2022/11/30 12:43:30;;;;;;;26.52;15.77;;;8.40;99.90;;;;;;5812468;25;20017;-63
2022/11/30 12:46:19;;;;;;;27.42;15.05;;;8.20;99.90;;;;;;5757081;25;20022;-62
2022/11/30 12:49:15;;;;;;;29.08;14.63;;;7.90;99.90;;;;;;5711989;25;20012;-59
2022/11/30 12:52:36;;;;;;;28.88;15.73;;;7.80;99.90;;;;;;5694578;25;20024;-63
2022/11/30 12:55:39;;;;;;;27.08;14.13;;;7.90;99.90;;;;;;5677428;25;20376;-60
2022/11/30 12:58:20;;;;;;;25.48;13.05;;;7.40;99.90;;;;;;5609641;26;20017;-61
2022/11/30 13:01:07;;;;;;;24.55;12.63;;;7.50;99.90;;;;;;5716911;25;20016;-61
2022/11/30 13:03:57;;;;;;;26.63;13.10;;;7.30;99.90;;;;;;5708555;25;20024;-61
2022/11/30 13:06:56;;;;;;;27.40;12.98;;;7.50;99.90;;;;;;5638380;26;20211;-62
2022/11/30 13:10:04;;;;;;;26.33;13.43;;;7.60;99.90;;;;;;5620792;26;20013;-62
2022/11/30 13:12:47;;;;;;;22.95;13.02;;;7.80;99.90;;;;;;5600362;26;20288;-60
2022/11/30 13:15:27;;;;;;;29.85;13.10;;;7.70;99.90;;;;;;5590228;26;20028;-63
2022/11/30 13:18:03;;;;;;;27.08;13.80;;;7.70;99.90;;;;;;5628134;26;20029;-62
2022/11/30 13:20:57;;;;;;;24.10;12.20;;;7.50;99.90;;;;;;5641245;25;20020;-62
2022/11/30 13:23:37;;;;;;;24.90;12.40;;;7.50;99.90;;;;;;5614554;26;20030;-60
2022/11/30 13:26:32;;;;;;;27.02;13.85;;;7.50;99.90;;;;;;5602043;26;20018;-62
2022/11/30 13:30:02;;;;;;;21.63;13.38;;;7.60;99.90;;;;;;5593931;26;20029;-62
2022/11/30 13:32:41;;;;;;;20.92;12.38;;;7.70;99.90;;;;;;5598669;26;20029;-62
2022/11/30 13:35:28;;;;;;;22.70;11.82;;;7.60;99.90;;;;;;5584544;26;20048;-62
2022/11/30 13:38:18;;;;;;;25.55;12.05;;;7.50;99.90;;;;;;5620473;26;20029;-59
2022/11/30 13:41:09;;;;;;;17.33;9.73;;;7.50;99.90;;;;;;5656299;26;20383;-60
2022/11/30 13:43:47;;;;;;;18.60;9.88;;;7.50;99.90;;;;;;5596290;26;20078;-60
2022/11/30 13:46:21;;;;;;;17.73;9.77;;;7.30;99.90;;;;;;5576237;26;20026;-62
2022/11/30 13:49:37;;;;;;;18.92;10.60;;;7.30;99.90;;;;;;5659991;25;20020;-62
2022/11/30 13:52:13;;;;;;;24.48;11.45;;;7.40;99.90;;;;;;5596196;26;20029;-61
2022/11/30 13:54:45;;;;;;;19.50;10.75;;;7.50;99.90;;;;;;5643924;26;20024;-60
2022/11/30 13:57:29;;;;;;;20.08;11.98;;;7.50;99.90;;;;;;5612180;26;20025;-62
2022/11/30 14:00:30;;;;;;;19.15;10.98;;;7.50;99.90;;;;;;5605105;26;20210;-60
2022/11/30 14:03:19;;;;;;;21.15;12.25;;;7.50;99.90;;;;;;5603819;26;20221;-61
2022/11/30 14:05:59;;;;;;;19.90;11.70;;;7.50;99.90;;;;;;5630010;26;20029;-61
2022/11/30 14:08:37;;;;;;;21.92;12.52;;;7.10;99.90;;;;;;5633021;25;23493;-60
2022/11/30 14:11:34;;;;;;;22.65;13.40;;;6.90;99.90;;;;;;5684700;25;20027;-62
2022/11/30 14:14:48;;;;;;;25.90;12.95;;;6.50;99.90;;;;;;5614058;26;20021;-61
2022/11/30 14:17:30;;;;;;;21.52;12.02;;;6.30;99.90;;;;;;5591428;26;20327;-61
2022/11/30 14:20:15;;;;;;;22.48;13.13;;;6.20;99.90;;;;;;5519311;26;20050;-60
2022/11/30 14:22:47;;;;;;;25.75;12.43;;;6.40;99.90;;;;;;5460796;27;21149;-60
2022/11/30 14:25:23;;;;;;;27.65;12.05;;;6.50;99.90;;;;;;5510880;26;20032;-62
2022/11/30 14:28:01;;;;;;;24.70;13.63;;;6.60;99.90;;;;;;5502183;26;20343;-60
2022/11/30 14:30:40;;;;;;;22.42;11.65;;;6.70;99.90;;;;;;5433883;26;20023;-62
2022/11/30 14:33:26;;;;;;;24.70;13.95;;;6.70;99.90;;;;;;5528179;26;20027;-60
2022/11/30 14:35:59;;;;;;;26.40;13.43;;;6.70;99.90;;;;;;5581870;26;20014;-60
2022/11/30 14:38:45;;;;;;;24.45;12.90;;;6.60;99.90;;;;;;5544484;26;20030;-62
2022/11/30 14:41:30;;;;;;;27.98;11.95;;;6.20;99.90;;;;;;5486854;26;20032;-61
2022/11/30 14:44:16;;;;;;;26.15;12.52;;;6.30;99.90;;;;;;5468072;26;21200;-63
2022/11/30 14:46:51;;;;;;;24.55;12.38;;;6.50;99.90;;;;;;5442270;27;20074;-62
2022/11/30 14:49:26;;;;;;;21.58;12.25;;;6.50;99.90;;;;;;5446640;27;20035;-61
2022/11/30 14:52:05;;;;;;;24.60;11.77;;;6.50;99.90;;;;;;5416028;27;20077;-60
2022/11/30 14:55:54;;;;;;;22.58;11.10;;;6.50;99.90;;;;;;5351320;27;20218;-61
2022/11/30 14:59:22;;;;;;;20.90;10.90;;;6.40;99.90;;;;;;5254963;27;20327;-61
2022/11/30 15:02:05;;;;;;;20.98;11.43;;;6.20;99.90;;;;;;5252105;28;20035;-60
2022/11/30 15:04:43;;;;;;;25.13;12.40;;;6.10;99.90;;;;;;5197468;28;20043;-60
2022/11/30 15:07:25;;;;;;;21.13;11.70;;;6.00;99.90;;;;;;5239244;28;20025;-61
2022/11/30 15:10:06;;;;;;;24.33;12.02;;;5.90;99.90;;;;;;5204084;28;20047;-62
2022/11/30 15:12:48;;;;;;;18.30;10.93;;;5.90;99.90;;;;;;5246016;28;20029;-62
2022/11/30 15:15:30;;;;;;;22.77;10.82;;;5.80;99.90;;;;;;5245974;28;20032;-60
2022/11/30 15:18:37;;;;;;;24.00;12.23;;;5.80;99.90;;;;;;5231669;28;20132;-60
2022/11/30 15:21:22;;;;;;;21.05;12.00;;;5.80;99.90;;;;;;5224664;28;20034;-62
2022/11/30 15:24:02;;;;;;;24.20;11.75;;;5.80;99.90;;;;;;5234987;28;20037;-62
2022/11/30 15:27:14;;;;;;;21.05;12.15;;;5.70;99.90;;;;;;5160979;28;20619;-62
2022/11/30 15:30:16;;;;;;;20.75;11.23;;;5.70;99.90;;;;;;5110862;28;20053;-61
2022/11/30 15:33:23;;;;;;;23.02;12.95;;;5.80;99.90;;;;;;5115162;28;20061;-60
2022/11/30 15:36:34;;;;;;;21.48;11.70;;;5.70;99.90;;;;;;5178722;28;20062;-60
2022/11/30 15:39:52;;;;;;;23.25;11.15;;;5.70;99.90;;;;;;5180696;28;20036;-61
2022/11/30 15:47:31;;;;;;;20.05;10.55;;;5.80;99.90;;;;;;5306010;27;20122;-61
2022/11/30 15:50:28;;;;;;;19.05;10.70;;;5.90;99.90;;;;;;5288702;28;20040;-61
2022/11/30 15:53:30;;;;;;;17.80;9.93;;;5.90;99.90;;;;;;5272339;28;20044;-61
2022/11/30 15:56:06;;;;;;;19.60;10.65;;;6.00;99.90;;;;;;5268240;28;20047;-63
2022/11/30 15:59:23;;;;;;;21.45;10.60;;;6.00;99.90;;;;;;5282555;28;20032;-62
2022/11/30 16:02:07;;;;;;;25.85;10.60;;;6.10;99.90;;;;;;5276148;28;20066;-61
2022/11/30 16:04:56;;;;;;;20.08;11.02;;;6.00;99.90;;;;;;5261230;28;20315;-63
2022/11/30 16:07:36;;;;;;;20.38;10.90;;;6.00;99.90;;;;;;5244959;28;20033;-59
2022/11/30 16:10:18;;;;;;;18.98;10.25;;;5.90;99.90;;;;;;5228956;28;20048;-60
2022/11/30 16:12:56;;;;;;;17.83;9.65;;;5.90;99.90;;;;;;5250163;28;20035;-60
2022/11/30 16:15:39;;;;;;;23.70;10.00;;;5.90;99.90;;;;;;5257154;28;20052;-64
2022/11/30 16:18:27;;;;;;;23.20;9.77;;;5.90;99.90;;;;;;5256024;28;20232;-60
2022/11/30 16:21:00;;;;;;;18.63;9.13;;;5.70;99.90;;;;;;5226725;28;20041;-60
2022/11/30 16:23:37;;;;;;;22.63;10.38;;;5.60;99.90;;;;;;5238940;28;20119;-61
2022/11/30 16:26:22;;;;;;;21.45;10.23;;;5.60;99.90;;;;;;5208084;28;20040;-61
2022/11/30 16:28:56;;;;;;;19.42;9.95;;;5.50;99.90;;;;;;5213512;28;20040;-60
2022/11/30 16:31:28;;;;;;;16.52;8.88;;;5.50;99.90;;;;;;5241835;28;20033;-62
2022/11/30 16:34:07;;;;;;;24.95;10.60;;;5.60;99.90;;;;;;5207973;28;20049;-61
2022/11/30 16:36:41;;;;;;;19.30;10.00;;;5.60;99.90;;;;;;5246853;28;20057;-61
2022/11/30 16:39:19;;;;;;;18.98;10.82;;;5.60;99.90;;;;;;5232808;28;20047;-61
2022/11/30 16:41:55;;;;;;;16.02;10.30;;;5.60;99.90;;;;;;5224744;28;20496;-60
2022/11/30 16:44:27;;;;;;;20.02;10.98;;;5.50;99.90;;;;;;5227753;28;20065;-60
2022/11/30 16:47:02;;;;;;;24.70;11.88;;;5.50;99.90;;;;;;5252616;28;20083;-60
2022/11/30 16:49:33;;;;;;;19.15;11.07;;;5.30;99.90;;;;;;5223915;28;20052;-61